sensor_id;sensor_type;location;lat;lon;timestamp;P1;durP1;ratioP1;P2;durP2;ratioP2
1685;SDS011;840;47.980;7.830;2023-03-04T00:01:50;41.10;;;28.60;;
1685;SDS011;840;47.980;7.830;2023-03-04T00:04:18;50.13;;;30.67;;
1685;SDS011;840;47.980;7.830;2023-03-04T00:06:44;50.37;;;29.20;;
1685;SDS011;840;47.980;7.830;2023-03-04T00:09:12;41.57;;;28.80;;
1685;SDS011;840;47.980;7.830;2023-03-04T00:11:39;42.50;;;28.30;;
1685;SDS011;840;47.980;7.830;2023-03-04T00:14:06;39.17;;;27.00;;
1685;SDS011;840;47.980;7.830;2023-03-04T00:16:33;33.87;;;26.97;;
1685;SDS011;840;47.980;7.830;2023-03-04T00:19:02;43.40;;;28.73;;
1685;SDS011;840;47.980;7.830;2023-03-04T00:21:29;46.00;;;28.83;;
1685;SDS011;840;47.980;7.830;2023-03-04T00:23:55;43.07;;;28.80;;
1685;SDS011;840;47.980;7.830;2023-03-04T00:26:22;38.77;;;28.67;;
1685;SDS011;840;47.980;7.830;2023-03-04T00:28:49;38.43;;;26.33;;
1685;SDS011;840;47.980;7.830;2023-03-04T00:31:16;49.47;;;29.50;;
1685;SDS011;840;47.980;7.830;2023-03-04T00:33:43;44.40;;;27.43;;
1685;SDS011;840;47.980;7.830;2023-03-04T00:36:11;45.90;;;29.23;;
1685;SDS011;840;47.980;7.830;2023-03-04T00:38:38;46.53;;;28.57;;
1685;SDS011;840;47.980;7.830;2023-03-04T00:41:05;43.63;;;28.67;;
1685;SDS011;840;47.980;7.830;2023-03-04T00:43:32;47.10;;;29.40;;
1685;SDS011;840;47.980;7.830;2023-03-04T00:45:58;43.80;;;28.33;;
1685;SDS011;840;47.980;7.830;2023-03-04T00:48:26;40.60;;;26.60;;
1685;SDS011;840;47.980;7.830;2023-03-04T00:50:53;42.00;;;26.50;;
1685;SDS011;840;47.980;7.830;2023-03-04T00:53:21;36.97;;;27.37;;
1685;SDS011;840;47.980;7.830;2023-03-04T00:55:48;40.00;;;25.73;;
1685;SDS011;840;47.980;7.830;2023-03-04T00:58:15;42.00;;;25.63;;
1685;SDS011;840;47.980;7.830;2023-03-04T01:00:42;40.80;;;28.50;;
1685;SDS011;840;47.980;7.830;2023-03-04T01:03:09;37.30;;;28.10;;
1685;SDS011;840;47.980;7.830;2023-03-04T01:05:36;40.10;;;25.97;;
1685;SDS011;840;47.980;7.830;2023-03-04T01:08:03;47.27;;;29.97;;
1685;SDS011;840;47.980;7.830;2023-03-04T01:10:32;47.60;;;28.83;;
1685;SDS011;840;47.980;7.830;2023-03-04T01:12:59;45.07;;;30.17;;
1685;SDS011;840;47.980;7.830;2023-03-04T01:15:28;35.20;;;26.60;;
1685;SDS011;840;47.980;7.830;2023-03-04T01:17:55;43.53;;;30.40;;
1685;SDS011;840;47.980;7.830;2023-03-04T01:20:22;41.77;;;27.97;;
1685;SDS011;840;47.980;7.830;2023-03-04T01:22:49;43.70;;;26.77;;
1685;SDS011;840;47.980;7.830;2023-03-04T01:25:16;41.57;;;26.57;;
1685;SDS011;840;47.980;7.830;2023-03-04T01:27:44;40.90;;;27.53;;
1685;SDS011;840;47.980;7.830;2023-03-04T01:30:11;49.77;;;28.70;;
1685;SDS011;840;47.980;7.830;2023-03-04T01:32:38;40.67;;;26.57;;
1685;SDS011;840;47.980;7.830;2023-03-04T01:35:05;39.47;;;27.80;;
1685;SDS011;840;47.980;7.830;2023-03-04T01:37:33;40.23;;;24.13;;
1685;SDS011;840;47.980;7.830;2023-03-04T01:40:00;38.23;;;24.60;;
1685;SDS011;840;47.980;7.830;2023-03-04T01:42:28;39.13;;;25.90;;
1685;SDS011;840;47.980;7.830;2023-03-04T01:44:59;43.80;;;26.50;;
1685;SDS011;840;47.980;7.830;2023-03-04T01:47:27;35.03;;;23.27;;
1685;SDS011;840;47.980;7.830;2023-03-04T01:49:55;36.47;;;24.93;;
1685;SDS011;840;47.980;7.830;2023-03-04T01:52:23;36.93;;;25.00;;
1685;SDS011;840;47.980;7.830;2023-03-04T01:54:52;32.90;;;24.57;;
1685;SDS011;840;47.980;7.830;2023-03-04T01:57:20;34.40;;;22.63;;
1685;SDS011;840;47.980;7.830;2023-03-04T02:02:43;34.90;;;24.40;;
1685;SDS011;840;47.980;7.830;2023-03-04T02:05:10;40.10;;;24.80;;
1685;SDS011;840;47.980;7.830;2023-03-04T02:07:37;34.43;;;22.70;;
1685;SDS011;840;47.980;7.830;2023-03-04T02:10:04;40.63;;;24.80;;
1685;SDS011;840;47.980;7.830;2023-03-04T02:12:32;30.73;;;22.20;;
1685;SDS011;840;47.980;7.830;2023-03-04T02:14:59;39.13;;;24.07;;
1685;SDS011;840;47.980;7.830;2023-03-04T02:17:27;34.87;;;23.33;;
1685;SDS011;840;47.980;7.830;2023-03-04T02:19:55;39.33;;;24.30;;
1685;SDS011;840;47.980;7.830;2023-03-04T02:22:27;35.53;;;23.20;;
1685;SDS011;840;47.980;7.830;2023-03-04T02:24:55;35.60;;;22.73;;
1685;SDS011;840;47.980;7.830;2023-03-04T02:27:28;38.70;;;23.40;;
1685;SDS011;840;47.980;7.830;2023-03-04T02:29:56;40.27;;;25.97;;
1685;SDS011;840;47.980;7.830;2023-03-04T02:32:23;42.07;;;26.00;;
1685;SDS011;840;47.980;7.830;2023-03-04T02:34:49;35.83;;;24.47;;
1685;SDS011;840;47.980;7.830;2023-03-04T02:37:17;37.93;;;24.17;;
1685;SDS011;840;47.980;7.830;2023-03-04T02:39:45;47.30;;;27.17;;
1685;SDS011;840;47.980;7.830;2023-03-04T02:42:14;47.00;;;29.00;;
1685;SDS011;840;47.980;7.830;2023-03-04T02:44:44;38.77;;;27.27;;
1685;SDS011;840;47.980;7.830;2023-03-04T02:47:14;44.73;;;28.03;;
1685;SDS011;840;47.980;7.830;2023-03-04T02:49:43;46.03;;;27.70;;
1685;SDS011;840;47.980;7.830;2023-03-04T02:52:11;39.20;;;25.87;;
1685;SDS011;840;47.980;7.830;2023-03-04T02:54:40;38.77;;;26.40;;
1685;SDS011;840;47.980;7.830;2023-03-04T02:57:08;36.20;;;25.50;;
1685;SDS011;840;47.980;7.830;2023-03-04T02:59:36;47.43;;;28.23;;
1685;SDS011;840;47.980;7.830;2023-03-04T03:02:06;53.97;;;28.50;;
1685;SDS011;840;47.980;7.830;2023-03-04T03:04:34;46.30;;;27.83;;
1685;SDS011;840;47.980;7.830;2023-03-04T03:07:03;35.20;;;26.00;;
1685;SDS011;840;47.980;7.830;2023-03-04T03:09:30;46.73;;;26.40;;
1685;SDS011;840;47.980;7.830;2023-03-04T03:11:57;39.87;;;26.97;;
1685;SDS011;840;47.980;7.830;2023-03-04T03:14:24;37.43;;;25.43;;
1685;SDS011;840;47.980;7.830;2023-03-04T03:16:51;40.03;;;24.43;;
1685;SDS011;840;47.980;7.830;2023-03-04T03:19:19;49.50;;;26.13;;
1685;SDS011;840;47.980;7.830;2023-03-04T03:21:46;46.83;;;27.00;;
1685;SDS011;840;47.980;7.830;2023-03-04T03:24:14;42.80;;;26.40;;
1685;SDS011;840;47.980;7.830;2023-03-04T03:26:41;44.13;;;27.43;;
1685;SDS011;840;47.980;7.830;2023-03-04T03:29:07;42.93;;;27.20;;
1685;SDS011;840;47.980;7.830;2023-03-04T03:31:34;43.93;;;28.57;;
1685;SDS011;840;47.980;7.830;2023-03-04T03:34:01;43.00;;;27.40;;
1685;SDS011;840;47.980;7.830;2023-03-04T03:36:30;43.57;;;28.63;;
1685;SDS011;840;47.980;7.830;2023-03-04T03:38:57;40.03;;;28.30;;
1685;SDS011;840;47.980;7.830;2023-03-04T03:41:23;44.20;;;31.10;;
1685;SDS011;840;47.980;7.830;2023-03-04T03:43:50;40.70;;;26.57;;
1685;SDS011;840;47.980;7.830;2023-03-04T03:46:17;42.50;;;29.97;;
1685;SDS011;840;47.980;7.830;2023-03-04T03:48:44;45.80;;;28.13;;
1685;SDS011;840;47.980;7.830;2023-03-04T03:51:11;42.27;;;28.20;;
1685;SDS011;840;47.980;7.830;2023-03-04T03:53:39;43.90;;;27.73;;
1685;SDS011;840;47.980;7.830;2023-03-04T03:56:06;48.67;;;30.23;;
1685;SDS011;840;47.980;7.830;2023-03-04T03:58:33;44.70;;;28.93;;
1685;SDS011;840;47.980;7.830;2023-03-04T04:01:00;43.73;;;28.20;;
1685;SDS011;840;47.980;7.830;2023-03-04T04:03:27;46.53;;;30.77;;
1685;SDS011;840;47.980;7.830;2023-03-04T04:05:54;45.03;;;29.63;;
1685;SDS011;840;47.980;7.830;2023-03-04T04:08:21;44.77;;;28.07;;
1685;SDS011;840;47.980;7.830;2023-03-04T04:10:49;36.20;;;27.80;;
1685;SDS011;840;47.980;7.830;2023-03-04T04:13:16;40.57;;;27.37;;
1685;SDS011;840;47.980;7.830;2023-03-04T04:15:43;47.07;;;29.00;;
1685;SDS011;840;47.980;7.830;2023-03-04T04:18:10;43.27;;;27.10;;
1685;SDS011;840;47.980;7.830;2023-03-04T04:20:37;41.37;;;28.17;;
1685;SDS011;840;47.980;7.830;2023-03-04T04:23:04;43.90;;;28.37;;
1685;SDS011;840;47.980;7.830;2023-03-04T04:25:31;38.97;;;27.20;;
1685;SDS011;840;47.980;7.830;2023-03-04T04:27:59;37.77;;;25.33;;
1685;SDS011;840;47.980;7.830;2023-03-04T04:30:26;43.93;;;27.60;;
1685;SDS011;840;47.980;7.830;2023-03-04T04:32:53;44.43;;;27.30;;
1685;SDS011;840;47.980;7.830;2023-03-04T04:35:20;45.30;;;26.77;;
1685;SDS011;840;47.980;7.830;2023-03-04T04:37:47;45.03;;;24.97;;
1685;SDS011;840;47.980;7.830;2023-03-04T04:40:14;36.77;;;24.47;;
1685;SDS011;840;47.980;7.830;2023-03-04T04:42:41;36.17;;;25.87;;
1685;SDS011;840;47.980;7.830;2023-03-04T04:45:10;40.47;;;26.17;;
1685;SDS011;840;47.980;7.830;2023-03-04T04:47:37;43.27;;;25.57;;
1685;SDS011;840;47.980;7.830;2023-03-04T04:50:04;35.17;;;24.63;;
1685;SDS011;840;47.980;7.830;2023-03-04T04:52:32;44.17;;;26.77;;
1685;SDS011;840;47.980;7.830;2023-03-04T04:54:59;42.47;;;27.17;;
1685;SDS011;840;47.980;7.830;2023-03-04T04:57:26;39.90;;;25.43;;
1685;SDS011;840;47.980;7.830;2023-03-04T04:59:53;41.37;;;25.03;;
1685;SDS011;840;47.980;7.830;2023-03-04T05:02:21;35.67;;;24.90;;
1685;SDS011;840;47.980;7.830;2023-03-04T05:04:48;42.67;;;25.90;;
1685;SDS011;840;47.980;7.830;2023-03-04T05:07:15;27.33;;;21.77;;
1685;SDS011;840;47.980;7.830;2023-03-04T05:09:42;34.83;;;24.10;;
1685;SDS011;840;47.980;7.830;2023-03-04T05:12:11;38.33;;;24.37;;
1685;SDS011;840;47.980;7.830;2023-03-04T05:14:38;37.90;;;24.57;;
1685;SDS011;840;47.980;7.830;2023-03-04T05:17:05;43.33;;;24.47;;
1685;SDS011;840;47.980;7.830;2023-03-04T05:19:34;39.10;;;25.50;;
1685;SDS011;840;47.980;7.830;2023-03-04T05:22:01;43.37;;;25.80;;
1685;SDS011;840;47.980;7.830;2023-03-04T05:24:28;34.30;;;23.87;;
1685;SDS011;840;47.980;7.830;2023-03-04T05:26:56;41.37;;;26.27;;
1685;SDS011;840;47.980;7.830;2023-03-04T05:29:23;36.30;;;23.83;;
1685;SDS011;840;47.980;7.830;2023-03-04T05:31:50;36.93;;;25.03;;
1685;SDS011;840;47.980;7.830;2023-03-04T05:34:17;33.57;;;23.57;;
1685;SDS011;840;47.980;7.830;2023-03-04T05:36:45;43.20;;;25.60;;
1685;SDS011;840;47.980;7.830;2023-03-04T05:39:12;35.73;;;24.60;;
1685;SDS011;840;47.980;7.830;2023-03-04T05:41:39;38.27;;;26.30;;
1685;SDS011;840;47.980;7.830;2023-03-04T05:44:06;45.97;;;24.27;;
1685;SDS011;840;47.980;7.830;2023-03-04T05:46:32;34.57;;;23.97;;
1685;SDS011;840;47.980;7.830;2023-03-04T05:48:59;37.17;;;24.20;;
1685;SDS011;840;47.980;7.830;2023-03-04T05:51:26;38.30;;;25.27;;
1685;SDS011;840;47.980;7.830;2023-03-04T05:53:55;37.53;;;25.63;;
1685;SDS011;840;47.980;7.830;2023-03-04T05:56:22;37.27;;;27.30;;
1685;SDS011;840;47.980;7.830;2023-03-04T05:58:48;39.93;;;24.60;;
1685;SDS011;840;47.980;7.830;2023-03-04T06:01:16;37.90;;;24.90;;
1685;SDS011;840;47.980;7.830;2023-03-04T06:03:42;33.87;;;22.13;;
1685;SDS011;840;47.980;7.830;2023-03-04T06:06:12;33.70;;;23.17;;
1685;SDS011;840;47.980;7.830;2023-03-04T06:08:39;42.90;;;24.93;;
1685;SDS011;840;47.980;7.830;2023-03-04T06:11:07;38.20;;;24.80;;
1685;SDS011;840;47.980;7.830;2023-03-04T06:13:34;43.93;;;27.10;;
1685;SDS011;840;47.980;7.830;2023-03-04T06:16:02;40.90;;;26.77;;
1685;SDS011;840;47.980;7.830;2023-03-04T06:18:29;38.17;;;25.23;;
1685;SDS011;840;47.980;7.830;2023-03-04T06:20:56;33.63;;;23.93;;
1685;SDS011;840;47.980;7.830;2023-03-04T06:23:23;42.53;;;24.87;;
1685;SDS011;840;47.980;7.830;2023-03-04T06:25:51;32.30;;;23.80;;
1685;SDS011;840;47.980;7.830;2023-03-04T06:28:20;37.87;;;27.53;;
1685;SDS011;840;47.980;7.830;2023-03-04T06:30:47;41.33;;;22.80;;
1685;SDS011;840;47.980;7.830;2023-03-04T06:33:17;38.50;;;24.90;;
1685;SDS011;840;47.980;7.830;2023-03-04T06:35:44;38.30;;;26.10;;
1685;SDS011;840;47.980;7.830;2023-03-04T06:38:11;37.07;;;24.77;;
1685;SDS011;840;47.980;7.830;2023-03-04T06:40:37;39.60;;;25.83;;
1685;SDS011;840;47.980;7.830;2023-03-04T06:43:04;37.20;;;23.13;;
1685;SDS011;840;47.980;7.830;2023-03-04T06:45:32;40.17;;;26.27;;
1685;SDS011;840;47.980;7.830;2023-03-04T06:47:59;34.20;;;23.40;;
1685;SDS011;840;47.980;7.830;2023-03-04T06:50:26;37.13;;;24.63;;
1685;SDS011;840;47.980;7.830;2023-03-04T06:52:54;39.00;;;24.50;;
1685;SDS011;840;47.980;7.830;2023-03-04T06:55:22;37.83;;;23.53;;
1685;SDS011;840;47.980;7.830;2023-03-04T06:57:49;41.17;;;25.27;;
1685;SDS011;840;47.980;7.830;2023-03-04T07:00:17;44.20;;;28.53;;
1685;SDS011;840;47.980;7.830;2023-03-04T07:02:46;37.77;;;26.33;;
1685;SDS011;840;47.980;7.830;2023-03-04T07:05:13;48.13;;;24.87;;
1685;SDS011;840;47.980;7.830;2023-03-04T07:07:40;40.07;;;27.00;;
1685;SDS011;840;47.980;7.830;2023-03-04T07:10:07;36.80;;;25.57;;
1685;SDS011;840;47.980;7.830;2023-03-04T07:12:36;37.20;;;25.20;;
1685;SDS011;840;47.980;7.830;2023-03-04T07:15:03;34.30;;;24.80;;
1685;SDS011;840;47.980;7.830;2023-03-04T07:17:30;37.93;;;26.17;;
1685;SDS011;840;47.980;7.830;2023-03-04T07:20:00;45.33;;;28.00;;
1685;SDS011;840;47.980;7.830;2023-03-04T07:22:41;36.77;;;24.80;;
1685;SDS011;840;47.980;7.830;2023-03-04T07:25:08;47.90;;;27.40;;
1685;SDS011;840;47.980;7.830;2023-03-04T07:27:35;36.20;;;25.40;;
1685;SDS011;840;47.980;7.830;2023-03-04T07:30:05;41.27;;;27.50;;
1685;SDS011;840;47.980;7.830;2023-03-04T07:32:33;37.10;;;25.70;;
1685;SDS011;840;47.980;7.830;2023-03-04T07:35:01;42.53;;;26.57;;
1685;SDS011;840;47.980;7.830;2023-03-04T07:37:28;38.33;;;26.40;;
1685;SDS011;840;47.980;7.830;2023-03-04T07:39:55;37.20;;;27.20;;
1685;SDS011;840;47.980;7.830;2023-03-04T07:42:22;42.10;;;28.10;;
1685;SDS011;840;47.980;7.830;2023-03-04T07:44:50;42.37;;;27.37;;
1685;SDS011;840;47.980;7.830;2023-03-04T07:47:19;38.40;;;24.33;;
1685;SDS011;840;47.980;7.830;2023-03-04T07:49:46;39.47;;;26.87;;
1685;SDS011;840;47.980;7.830;2023-03-04T07:52:14;45.93;;;27.20;;
1685;SDS011;840;47.980;7.830;2023-03-04T07:54:41;45.40;;;27.90;;
1685;SDS011;840;47.980;7.830;2023-03-04T07:57:08;39.07;;;26.10;;
1685;SDS011;840;47.980;7.830;2023-03-04T07:59:36;44.90;;;29.40;;
1685;SDS011;840;47.980;7.830;2023-03-04T08:02:03;47.90;;;24.90;;
1685;SDS011;840;47.980;7.830;2023-03-04T08:04:30;37.60;;;25.80;;
1685;SDS011;840;47.980;7.830;2023-03-04T08:06:57;41.60;;;26.07;;
1685;SDS011;840;47.980;7.830;2023-03-04T08:09:25;48.40;;;28.67;;
1685;SDS011;840;47.980;7.830;2023-03-04T08:11:52;47.40;;;25.30;;
1685;SDS011;840;47.980;7.830;2023-03-04T08:14:19;51.83;;;27.33;;
1685;SDS011;840;47.980;7.830;2023-03-04T08:16:46;49.77;;;26.73;;
1685;SDS011;840;47.980;7.830;2023-03-04T08:19:13;52.27;;;29.30;;
1685;SDS011;840;47.980;7.830;2023-03-04T08:21:40;46.63;;;26.60;;
1685;SDS011;840;47.980;7.830;2023-03-04T08:24:09;50.60;;;28.97;;
1685;SDS011;840;47.980;7.830;2023-03-04T08:26:38;54.67;;;30.13;;
1685;SDS011;840;47.980;7.830;2023-03-04T08:29:08;54.73;;;28.47;;
1685;SDS011;840;47.980;7.830;2023-03-04T08:31:36;57.20;;;29.70;;
1685;SDS011;840;47.980;7.830;2023-03-04T08:34:03;54.30;;;29.10;;
1685;SDS011;840;47.980;7.830;2023-03-04T08:36:31;58.17;;;29.97;;
1685;SDS011;840;47.980;7.830;2023-03-04T08:38:58;65.43;;;30.83;;
1685;SDS011;840;47.980;7.830;2023-03-04T08:41:26;52.53;;;30.43;;
1685;SDS011;840;47.980;7.830;2023-03-04T08:43:54;51.07;;;27.77;;
1685;SDS011;840;47.980;7.830;2023-03-04T08:46:22;72.50;;;31.63;;
1685;SDS011;840;47.980;7.830;2023-03-04T08:48:49;56.80;;;31.77;;
1685;SDS011;840;47.980;7.830;2023-03-04T08:51:16;62.00;;;32.97;;
1685;SDS011;840;47.980;7.830;2023-03-04T08:53:43;53.97;;;30.80;;
1685;SDS011;840;47.980;7.830;2023-03-04T08:56:11;58.43;;;32.30;;
1685;SDS011;840;47.980;7.830;2023-03-04T08:58:39;53.97;;;30.47;;
1685;SDS011;840;47.980;7.830;2023-03-04T09:01:08;57.73;;;32.70;;
1685;SDS011;840;47.980;7.830;2023-03-04T09:03:37;62.77;;;31.40;;
1685;SDS011;840;47.980;7.830;2023-03-04T09:06:05;50.80;;;30.87;;
1685;SDS011;840;47.980;7.830;2023-03-04T09:08:33;60.33;;;32.70;;
1685;SDS011;840;47.980;7.830;2023-03-04T09:11:00;62.47;;;32.30;;
1685;SDS011;840;47.980;7.830;2023-03-04T09:13:28;59.30;;;31.80;;
1685;SDS011;840;47.980;7.830;2023-03-04T09:15:56;57.47;;;31.87;;
1685;SDS011;840;47.980;7.830;2023-03-04T09:18:25;52.43;;;33.93;;
1685;SDS011;840;47.980;7.830;2023-03-04T09:20:53;64.63;;;33.40;;
1685;SDS011;840;47.980;7.830;2023-03-04T09:23:21;59.77;;;32.70;;
1685;SDS011;840;47.980;7.830;2023-03-04T09:25:48;59.27;;;33.80;;
1685;SDS011;840;47.980;7.830;2023-03-04T09:28:16;60.20;;;31.33;;
1685;SDS011;840;47.980;7.830;2023-03-04T09:30:44;58.80;;;33.50;;
1685;SDS011;840;47.980;7.830;2023-03-04T09:33:11;71.77;;;34.80;;
1685;SDS011;840;47.980;7.830;2023-03-04T09:35:40;60.77;;;31.97;;
1685;SDS011;840;47.980;7.830;2023-03-04T09:38:07;72.10;;;36.63;;
1685;SDS011;840;47.980;7.830;2023-03-04T09:40:36;61.33;;;35.03;;
1685;SDS011;840;47.980;7.830;2023-03-04T09:43:09;61.47;;;32.90;;
1685;SDS011;840;47.980;7.830;2023-03-04T09:45:41;61.07;;;32.97;;
1685;SDS011;840;47.980;7.830;2023-03-04T09:48:12;63.63;;;36.27;;
1685;SDS011;840;47.980;7.830;2023-03-04T09:50:45;63.70;;;35.17;;
1685;SDS011;840;47.980;7.830;2023-03-04T09:53:21;58.43;;;35.10;;
1685;SDS011;840;47.980;7.830;2023-03-04T09:56:08;55.60;;;32.00;;
1685;SDS011;840;47.980;7.830;2023-03-04T09:58:40;50.80;;;32.17;;
1685;SDS011;840;47.980;7.830;2023-03-04T10:01:15;62.05;;;37.90;;
1685;SDS011;840;47.980;7.830;2023-03-04T10:03:47;66.80;;;34.80;;
1685;SDS011;840;47.980;7.830;2023-03-04T10:06:19;61.67;;;34.17;;
1685;SDS011;840;47.980;7.830;2023-03-04T10:08:49;69.27;;;34.63;;
1685;SDS011;840;47.980;7.830;2023-03-04T10:11:20;62.50;;;31.63;;
1685;SDS011;840;47.980;7.830;2023-03-04T10:13:52;61.17;;;35.70;;
1685;SDS011;840;47.980;7.830;2023-03-04T10:16:26;63.75;;;36.97;;
1685;SDS011;840;47.980;7.830;2023-03-04T10:19:00;54.47;;;30.20;;
1685;SDS011;840;47.980;7.830;2023-03-04T10:21:38;61.20;;;35.43;;
1685;SDS011;840;47.980;7.830;2023-03-04T10:24:10;58.40;;;34.47;;
1685;SDS011;840;47.980;7.830;2023-03-04T10:26:38;53.33;;;31.57;;
1685;SDS011;840;47.980;7.830;2023-03-04T10:29:07;49.83;;;29.83;;
1685;SDS011;840;47.980;7.830;2023-03-04T10:31:38;52.93;;;31.73;;
1685;SDS011;840;47.980;7.830;2023-03-04T10:34:08;58.53;;;30.57;;
1685;SDS011;840;47.980;7.830;2023-03-04T10:39:25;52.77;;;29.50;;
1685;SDS011;840;47.980;7.830;2023-03-04T10:41:56;49.67;;;28.30;;
1685;SDS011;840;47.980;7.830;2023-03-04T10:44:25;60.10;;;34.47;;
1685;SDS011;840;47.980;7.830;2023-03-04T10:46:54;54.73;;;33.03;;
1685;SDS011;840;47.980;7.830;2023-03-04T10:49:21;57.80;;;31.63;;
1685;SDS011;840;47.980;7.830;2023-03-04T10:51:50;54.50;;;30.20;;
1685;SDS011;840;47.980;7.830;2023-03-04T10:54:22;55.53;;;31.20;;
1685;SDS011;840;47.980;7.830;2023-03-04T10:56:53;50.47;;;30.80;;
1685;SDS011;840;47.980;7.830;2023-03-04T10:59:31;61.40;;;33.13;;
1685;SDS011;840;47.980;7.830;2023-03-04T11:02:05;51.07;;;32.43;;
1685;SDS011;840;47.980;7.830;2023-03-04T11:04:41;57.97;;;31.40;;
1685;SDS011;840;47.980;7.830;2023-03-04T11:07:08;53.97;;;32.43;;
1685;SDS011;840;47.980;7.830;2023-03-04T11:09:37;54.13;;;31.60;;
1685;SDS011;840;47.980;7.830;2023-03-04T11:12:08;52.33;;;30.47;;
1685;SDS011;840;47.980;7.830;2023-03-04T11:14:37;50.83;;;31.93;;
1685;SDS011;840;47.980;7.830;2023-03-04T11:17:15;54.93;;;32.80;;
1685;SDS011;840;47.980;7.830;2023-03-04T11:19:48;57.90;;;32.30;;
1685;SDS011;840;47.980;7.830;2023-03-04T11:22:20;55.00;;;33.50;;
1685;SDS011;840;47.980;7.830;2023-03-04T11:24:53;51.57;;;30.63;;
1685;SDS011;840;47.980;7.830;2023-03-04T11:27:23;54.30;;;31.83;;
1685;SDS011;840;47.980;7.830;2023-03-04T11:29:57;60.50;;;32.97;;
1685;SDS011;840;47.980;7.830;2023-03-04T11:32:29;53.40;;;32.10;;
1685;SDS011;840;47.980;7.830;2023-03-04T11:35:05;52.33;;;32.40;;
1685;SDS011;840;47.980;7.830;2023-03-04T11:37:41;58.57;;;31.07;;
1685;SDS011;840;47.980;7.830;2023-03-04T11:40:15;51.03;;;31.20;;
1685;SDS011;840;47.980;7.830;2023-03-04T11:42:50;55.23;;;31.70;;
1685;SDS011;840;47.980;7.830;2023-03-04T11:45:23;53.33;;;32.30;;
1685;SDS011;840;47.980;7.830;2023-03-04T11:47:55;53.20;;;33.17;;
1685;SDS011;840;47.980;7.830;2023-03-04T11:50:30;49.20;;;33.20;;
1685;SDS011;840;47.980;7.830;2023-03-04T11:53:19;50.33;;;28.47;;
1685;SDS011;840;47.980;7.830;2023-03-04T11:55:59;52.63;;;30.50;;
1685;SDS011;840;47.980;7.830;2023-03-04T12:01:31;55.60;;;33.70;;
1685;SDS011;840;47.980;7.830;2023-03-04T12:04:10;53.60;;;33.87;;
1685;SDS011;840;47.980;7.830;2023-03-04T12:07:05;59.07;;;34.40;;
1685;SDS011;840;47.980;7.830;2023-03-04T12:09:41;67.27;;;36.13;;
1685;SDS011;840;47.980;7.830;2023-03-04T12:12:21;54.00;;;30.97;;
1685;SDS011;840;47.980;7.830;2023-03-04T12:14:54;54.00;;;32.30;;
1685;SDS011;840;47.980;7.830;2023-03-04T12:17:39;61.30;;;33.33;;
1685;SDS011;840;47.980;7.830;2023-03-04T12:20:33;62.83;;;35.27;;
1685;SDS011;840;47.980;7.830;2023-03-04T12:23:23;54.73;;;30.77;;
1685;SDS011;840;47.980;7.830;2023-03-04T12:26:11;49.90;;;31.03;;
1685;SDS011;840;47.980;7.830;2023-03-04T12:28:49;50.40;;;30.00;;
1685;SDS011;840;47.980;7.830;2023-03-04T12:31:32;56.10;;;33.53;;
1685;SDS011;840;47.980;7.830;2023-03-04T12:37:04;50.87;;;29.43;;
1685;SDS011;840;47.980;7.830;2023-03-04T12:39:46;48.90;;;31.83;;
1685;SDS011;840;47.980;7.830;2023-03-04T12:42:27;52.63;;;29.50;;
1685;SDS011;840;47.980;7.830;2023-03-04T12:45:05;48.13;;;30.20;;
1685;SDS011;840;47.980;7.830;2023-03-04T12:47:45;50.53;;;29.73;;
1685;SDS011;840;47.980;7.830;2023-03-04T12:50:23;45.47;;;29.37;;
1685;SDS011;840;47.980;7.830;2023-03-04T12:52:58;52.07;;;29.23;;
1685;SDS011;840;47.980;7.830;2023-03-04T12:55:33;49.43;;;32.00;;
1685;SDS011;840;47.980;7.830;2023-03-04T12:58:03;40.00;;;27.67;;
1685;SDS011;840;47.980;7.830;2023-03-04T13:00:37;46.33;;;28.60;;
1685;SDS011;840;47.980;7.830;2023-03-04T13:03:13;47.03;;;30.90;;
1685;SDS011;840;47.980;7.830;2023-03-04T13:05:52;45.40;;;31.70;;
1685;SDS011;840;47.980;7.830;2023-03-04T13:08:28;44.90;;;29.67;;
1685;SDS011;840;47.980;7.830;2023-03-04T13:14:05;43.10;;;27.80;;
1685;SDS011;840;47.980;7.830;2023-03-04T13:16:35;50.10;;;30.30;;
1685;SDS011;840;47.980;7.830;2023-03-04T13:28:14;40.00;;;26.03;;
1685;SDS011;840;47.980;7.830;2023-03-04T13:36:34;40.47;;;27.97;;
1685;SDS011;840;47.980;7.830;2023-03-04T13:45:27;38.57;;;24.50;;
1685;SDS011;840;47.980;7.830;2023-03-04T13:47:56;36.77;;;24.50;;
1685;SDS011;840;47.980;7.830;2023-03-04T13:50:29;44.37;;;27.00;;
1685;SDS011;840;47.980;7.830;2023-03-04T13:53:20;43.70;;;26.90;;
1685;SDS011;840;47.980;7.830;2023-03-04T13:59:00;35.10;;;24.53;;
1685;SDS011;840;47.980;7.830;2023-03-04T14:01:51;38.35;;;26.85;;
1685;SDS011;840;47.980;7.830;2023-03-04T14:04:22;36.27;;;23.80;;
1685;SDS011;840;47.980;7.830;2023-03-04T14:06:54;38.93;;;25.63;;
1685;SDS011;840;47.980;7.830;2023-03-04T14:09:24;38.57;;;24.40;;
1685;SDS011;840;47.980;7.830;2023-03-04T14:11:52;36.57;;;23.70;;
1685;SDS011;840;47.980;7.830;2023-03-04T14:14:23;35.80;;;24.50;;
1685;SDS011;840;47.980;7.830;2023-03-04T14:17:07;36.00;;;26.75;;
1685;SDS011;840;47.980;7.830;2023-03-04T14:19:43;39.87;;;26.30;;
1685;SDS011;840;47.980;7.830;2023-03-04T14:22:22;38.80;;;23.93;;
1685;SDS011;840;47.980;7.830;2023-03-04T14:24:55;31.57;;;22.63;;
1685;SDS011;840;47.980;7.830;2023-03-04T14:27:23;33.80;;;23.47;;
1685;SDS011;840;47.980;7.830;2023-03-04T14:29:54;30.93;;;20.80;;
1685;SDS011;840;47.980;7.830;2023-03-04T14:32:22;32.23;;;21.50;;
1685;SDS011;840;47.980;7.830;2023-03-04T14:34:49;31.80;;;20.37;;
1685;SDS011;840;47.980;7.830;2023-03-04T14:37:20;26.47;;;22.13;;
1685;SDS011;840;47.980;7.830;2023-03-04T14:39:51;29.33;;;21.57;;
1685;SDS011;840;47.980;7.830;2023-03-04T14:42:21;37.93;;;23.40;;
1685;SDS011;840;47.980;7.830;2023-03-04T14:44:49;30.40;;;21.70;;
1685;SDS011;840;47.980;7.830;2023-03-04T14:47:18;35.10;;;23.70;;
1685;SDS011;840;47.980;7.830;2023-03-04T14:49:48;31.37;;;21.67;;
1685;SDS011;840;47.980;7.830;2023-03-04T14:52:30;31.30;;;22.17;;
1685;SDS011;840;47.980;7.830;2023-03-04T14:55:02;39.77;;;22.47;;
1685;SDS011;840;47.980;7.830;2023-03-04T14:57:43;32.77;;;21.23;;
1685;SDS011;840;47.980;7.830;2023-03-04T15:00:16;30.57;;;21.03;;
1685;SDS011;840;47.980;7.830;2023-03-04T15:02:51;28.53;;;20.20;;
1685;SDS011;840;47.980;7.830;2023-03-04T15:05:20;29.30;;;20.40;;
1685;SDS011;840;47.980;7.830;2023-03-04T15:07:50;34.10;;;21.90;;
1685;SDS011;840;47.980;7.830;2023-03-04T15:10:20;36.83;;;22.67;;
1685;SDS011;840;47.980;7.830;2023-03-04T15:12:50;32.73;;;21.70;;
1685;SDS011;840;47.980;7.830;2023-03-04T15:15:32;32.10;;;21.50;;
1685;SDS011;840;47.980;7.830;2023-03-04T15:18:17;34.97;;;24.37;;
1685;SDS011;840;47.980;7.830;2023-03-04T15:20:55;34.57;;;24.47;;
1685;SDS011;840;47.980;7.830;2023-03-04T15:23:23;36.37;;;24.13;;
1685;SDS011;840;47.980;7.830;2023-03-04T15:25:52;35.40;;;24.50;;
1685;SDS011;840;47.980;7.830;2023-03-04T15:28:21;38.57;;;26.53;;
1685;SDS011;840;47.980;7.830;2023-03-04T15:30:49;38.53;;;25.73;;
1685;SDS011;840;47.980;7.830;2023-03-04T15:33:16;35.53;;;24.57;;
1685;SDS011;840;47.980;7.830;2023-03-04T15:35:45;38.60;;;25.80;;
1685;SDS011;840;47.980;7.830;2023-03-04T15:38:16;42.23;;;25.57;;
1685;SDS011;840;47.980;7.830;2023-03-04T15:40:44;42.80;;;27.30;;
1685;SDS011;840;47.980;7.830;2023-03-04T15:43:14;42.40;;;28.50;;
1685;SDS011;840;47.980;7.830;2023-03-04T15:45:42;48.57;;;30.53;;
1685;SDS011;840;47.980;7.830;2023-03-04T15:48:09;39.90;;;26.57;;
1685;SDS011;840;47.980;7.830;2023-03-04T15:50:38;40.00;;;27.00;;
1685;SDS011;840;47.980;7.830;2023-03-04T15:53:08;38.93;;;25.70;;
1685;SDS011;840;47.980;7.830;2023-03-04T15:55:38;43.87;;;25.70;;